Flight Track Log - Related Links

Times and Time Zones

All times are in EDT time to prevent confusion due to time zone crossing. See the AWI3688 flight status page for this flight to view local times or setup timezone preferences in your user account.

Time Position Orientation Groundspeed Altitude Reporting Facility
EDT Latitude Longitude Course Direction KTS MPH feet Rate Location/Type
Fri 02:35:49 PM 39.8500 -75.2833 37° Northeast 165 190 900  Level Philadelphia TRACON
Fri 02:37:37 PM 39.7833 -75.3667 224° Southwest 200 230 5,300 2,521 Climbing Philadelphia TRACON
Fri 02:38:00 PM 39.8167 -74.9055 90° East  Level FlightAware Approximate
Fri 02:38:38 PM 39.7333 -75.3333 153° Southeast 245 282 8,000  Level Philadelphia TRACON
Fri 02:39:00 PM 39.8020 -74.7930 105° East  Level FlightAware Approximate
Fri 02:39:38 PM 39.7333 -75.2333 90° East 317 365 9,200  Level Philadelphia TRACON
Fri 02:40:00 PM 39.7949 -74.6885 37° Northeast  Level FlightAware Approximate
Fri 02:40:32 PM 39.7500 -75.1333 78° East 315 362 11,500  Level Philadelphia TRACON
Fri 02:41:00 PM 39.8650 -74.6184 37° Northeast  Level FlightAware Approximate
Fri 02:42:54 PM 39.8222 -74.8442 72° East 389 448 12,000  Level New York Center
Fri 02:43:55 PM 39.8119 -74.7192 96° East 371 427 13,400 1,400 Climbing New York Center
Fri 02:44:54 PM 39.8800 -74.6175 49° Northeast 362 417 14,800 1,700 Climbing New York Center
Fri 02:45:55 PM 39.9700 -74.5411 33° Northeast 349 402 16,800 1,613 Climbing New York Center
Fri 02:46:53 PM 40.0603 -74.4539 36° Northeast 384 442 18,000 1,169 Climbing New York Center
Fri 02:47:53 PM 40.1483 -74.3689 36° Northeast 400 460 19,100 1,074 Climbing New York Center
Fri 02:50:03 PM 40.3469 -74.1744 37° Northeast 403 464 21,400 1,042 Climbing Boston Center
Fri 02:51:03 PM 40.4419 -74.0842 36° Northeast 414 476 22,400 950 Climbing Boston Center
Fri 02:52:03 PM 40.5475 -73.9858 35° Northeast 414 476 23,300 800 Climbing Boston Center
Fri 02:53:03 PM 40.6447 -73.8897 37° Northeast 425 489 24,000 350 Climbing Boston Center
Fri 02:54:03 PM 40.7439 -73.7933 36° Northeast 425 489 24,000  Level Boston Center
Fri 02:55:03 PM 40.8472 -73.6911 37° Northeast 439 505 24,000  Level Boston Center
Fri 02:56:03 PM 40.9147 -73.6156 40° Northeast 450 518 24,000 -500 Level Boston Center
Fri 02:57:03 PM 41.0633 -73.5414 21° North 442 509 23,000 -1,000 Descending Boston Center
Fri 02:58:03 PM 41.1764 -73.4853 20° North 435 501 22,000 -1,250 Descending Boston Center
Fri 02:59:03 PM 41.2933 -73.4678 North 419 482 20,500 -1,292 Descending Boston Center
Fri 03:00:27 PM 41.4119 -73.4781 356° North 406 467 18,900 -1,458 Descending Boston Center
Fri 03:01:27 PM 41.5453 -73.4886 357° North 397 457 17,000 -1,750 Descending Boston Center
Fri 03:02:27 PM 41.6619 -73.4961 357° North 392 451 15,400 -1,500 Descending Boston Center
Fri 03:03:27 PM 41.7556 -73.5031 357° North 379 436 14,000 -1,400 Descending Boston Center
Fri 03:04:27 PM 41.8494 -73.5075 358° North 379 436 12,600 -1,582 Descending Boston Center
Fri 03:04:58 PM 41.9181 -73.5114 358° North 355 409 11,600 -1,400 Descending Boston Center
Fri 03:05:27 PM 41.9453 -73.5147 355° North 360 414 11,200 -371 Descending Boston Center
Fri 03:06:35 PM 42.0700 -73.5253 356° North 337 388 11,000 -143 Descending Boston Center
Fri 03:06:51 PM 42.0764 -73.5253 360° North 340 391 11,000  Level Boston Center
Fri 03:07:35 PM 42.1594 -73.5464 349° North 331 381 11,000  Level Boston Center
Fri 03:07:51 PM 42.1844 -73.5553 345° North 330 380 11,000 -98 Level Boston Center
Fri 03:08:36 PM 42.2489 -73.5703 350° North 335 386 10,900 -400 Descending Boston Center
Fri 03:08:51 PM 42.2739 -73.5764 350° North 330 380 10,600 -1,574 Descending Boston Center
Fri 03:09:37 PM 42.3361 -73.5944 348° North 285 328 9,300 -1,585 Descending Boston Center
Fri 03:10:37 PM 42.4131 -73.6128 350° North 274 315 7,800 -1,488 Descending Boston Center
Fri 03:11:38 PM 42.4903 -73.6169 358° North 276 318 6,300 -1,453 Descending Boston Center
Fri 03:12:45 PM 42.5694 -73.6186 359° North 267 307 4,700 -1,488 Descending Boston Center
Fri 03:13:39 PM 42.6317 -73.6450 343° North 267 307 3,300 -887 Descending Boston Center
Fri 03:14:40 PM 42.6936 -73.7000 327° Northwest 262 302 3,000 -295 Descending Boston Center

Login

Don't have an account? Register now (free) for customized features, flight alerts, and more!